Terminal Aerodrome Forecast
Issued by NWS Rapid City, SD

Home | Current Version | Previous Version | Text Only | Print | Product List | Glossary Off
Versions: 1 2 3 4 5 6 7 8 9 10 11 12 13 14 15 16 17

000
FTUS43 KUNR 030520
TAFRAP
TAF
KRAP 030520Z 0306/0406 36007KT P6SM BKN200
     FM031200 35020G30KT P6SM BKN200
     FM032000 36012KT P6SM BKN100=

USA.gov is the U.S. government's official web portal to all federal, state and local government web resources and services.